sensor_id;sensor_type;location;lat;lon;timestamp;temperature;humidity
44723;DHT22;30451;48.638;10.624;2022-09-09T00:00:47;27.00;51.70
44723;DHT22;30451;48.638;10.624;2022-09-09T00:03:19;27.00;51.80
44723;DHT22;30451;48.638;10.624;2022-09-09T00:06:02;27.00;51.80
44723;DHT22;30451;48.638;10.624;2022-09-09T00:11:10;26.90;51.70
44723;DHT22;30451;48.638;10.624;2022-09-09T00:13:46;26.90;51.80
44723;DHT22;30451;48.638;10.624;2022-09-09T00:16:22;26.90;51.80
44723;DHT22;30451;48.638;10.624;2022-09-09T00:21:43;26.80;51.90
44723;DHT22;30451;48.638;10.624;2022-09-09T00:24:28;26.80;51.90
44723;DHT22;30451;48.638;10.624;2022-09-09T00:27:04;26.80;51.90
44723;DHT22;30451;48.638;10.624;2022-09-09T00:29:57;26.80;52.00
44723;DHT22;30451;48.638;10.624;2022-09-09T00:32:30;26.70;51.90
44723;DHT22;30451;48.638;10.624;2022-09-09T00:35:11;26.70;52.00
44723;DHT22;30451;48.638;10.624;2022-09-09T00:37:41;26.70;52.00
44723;DHT22;30451;48.638;10.624;2022-09-09T00:41:05;26.70;52.00
44723;DHT22;30451;48.638;10.624;2022-09-09T00:46:21;26.70;52.10
44723;DHT22;30451;48.638;10.624;2022-09-09T00:54:40;26.60;52.00
44723;DHT22;30451;48.638;10.624;2022-09-09T00:59:56;26.60;52.10
44723;DHT22;30451;48.638;10.624;2022-09-09T01:02:41;26.60;52.10
44723;DHT22;30451;48.638;10.624;2022-09-09T01:07:47;26.50;52.10
44723;DHT22;30451;48.638;10.624;2022-09-09T01:10:17;26.50;52.10
44723;DHT22;30451;48.638;10.624;2022-09-09T01:12:47;26.50;52.10
44723;DHT22;30451;48.638;10.624;2022-09-09T01:15:18;26.50;52.10
44723;DHT22;30451;48.638;10.624;2022-09-09T01:20:27;26.50;52.20
44723;DHT22;30451;48.638;10.624;2022-09-09T01:27:11;26.40;52.10
44723;DHT22;30451;48.638;10.624;2022-09-09T01:29:14;26.40;52.10
44723;DHT22;30451;48.638;10.624;2022-09-09T01:31:51;26.40;52.20
44723;DHT22;30451;48.638;10.624;2022-09-09T01:34:17;26.40;52.20
44723;DHT22;30451;48.638;10.624;2022-09-09T01:36:49;26.40;52.20
44723;DHT22;30451;48.638;10.624;2022-09-09T01:39:16;26.30;52.20
44723;DHT22;30451;48.638;10.624;2022-09-09T01:41:42;26.30;52.20
44723;DHT22;30451;48.638;10.624;2022-09-09T01:44:09;26.30;52.20
44723;DHT22;30451;48.638;10.624;2022-09-09T01:46:35;26.30;52.20
44723;DHT22;30451;48.638;10.624;2022-09-09T01:49:02;26.30;52.20
44723;DHT22;30451;48.638;10.624;2022-09-09T01:51:29;26.30;52.20
44723;DHT22;30451;48.638;10.624;2022-09-09T01:53:55;26.30;52.20
44723;DHT22;30451;48.638;10.624;2022-09-09T02:01:58;26.30;52.20
44723;DHT22;30451;48.638;10.624;2022-09-09T02:05:35;26.30;52.30
44723;DHT22;30451;48.638;10.624;2022-09-09T02:07:44;26.30;52.20
44723;DHT22;30451;48.638;10.624;2022-09-09T02:10:25;26.30;52.30
44723;DHT22;30451;48.638;10.624;2022-09-09T02:13:14;26.30;52.30
44723;DHT22;30451;48.638;10.624;2022-09-09T02:18:25;26.20;52.20
44723;DHT22;30451;48.638;10.624;2022-09-09T02:20:53;26.20;52.20
44723;DHT22;30451;48.638;10.624;2022-09-09T02:23:19;26.20;52.30
44723;DHT22;30451;48.638;10.624;2022-09-09T02:25:46;26.20;52.30
44723;DHT22;30451;48.638;10.624;2022-09-09T02:28:14;26.20;52.30
44723;DHT22;30451;48.638;10.624;2022-09-09T02:30:44;26.20;52.30
44723;DHT22;30451;48.638;10.624;2022-09-09T02:33:13;26.20;52.30
44723;DHT22;30451;48.638;10.624;2022-09-09T02:35:40;26.20;52.30
44723;DHT22;30451;48.638;10.624;2022-09-09T02:38:10;26.20;52.30
44723;DHT22;30451;48.638;10.624;2022-09-09T02:40:37;26.20;52.30
44723;DHT22;30451;48.638;10.624;2022-09-09T02:43:03;26.20;52.30
44723;DHT22;30451;48.638;10.624;2022-09-09T02:45:40;26.20;52.30
44723;DHT22;30451;48.638;10.624;2022-09-09T02:54:01;26.10;52.30
44723;DHT22;30451;48.638;10.624;2022-09-09T02:56:31;26.10;52.30
44723;DHT22;30451;48.638;10.624;2022-09-09T02:58:59;26.10;52.40
44723;DHT22;30451;48.638;10.624;2022-09-09T03:01:24;26.10;52.30
44723;DHT22;30451;48.638;10.624;2022-09-09T03:03:50;26.10;52.40
44723;DHT22;30451;48.638;10.624;2022-09-09T03:06:16;26.10;52.40
44723;DHT22;30451;48.638;10.624;2022-09-09T03:08:41;26.00;52.30
44723;DHT22;30451;48.638;10.624;2022-09-09T03:11:07;26.10;52.40
44723;DHT22;30451;48.638;10.624;2022-09-09T03:13:34;26.00;52.30
44723;DHT22;30451;48.638;10.624;2022-09-09T03:16:00;26.10;52.40
44723;DHT22;30451;48.638;10.624;2022-09-09T03:18:26;26.00;52.30
44723;DHT22;30451;48.638;10.624;2022-09-09T03:20:52;26.00;52.30
44723;DHT22;30451;48.638;10.624;2022-09-09T03:23:19;26.00;52.30
44723;DHT22;30451;48.638;10.624;2022-09-09T03:25:48;26.00;52.30
44723;DHT22;30451;48.638;10.624;2022-09-09T03:28:14;26.00;52.30
44723;DHT22;30451;48.638;10.624;2022-09-09T03:30:39;26.00;52.30
44723;DHT22;30451;48.638;10.624;2022-09-09T03:33:05;26.00;52.30
44723;DHT22;30451;48.638;10.624;2022-09-09T03:35:31;26.00;52.30
44723;DHT22;30451;48.638;10.624;2022-09-09T03:37:57;26.00;52.30
44723;DHT22;30451;48.638;10.624;2022-09-09T03:40:22;26.00;52.30
44723;DHT22;30451;48.638;10.624;2022-09-09T03:42:48;26.00;52.30
44723;DHT22;30451;48.638;10.624;2022-09-09T03:45:14;26.00;52.40
44723;DHT22;30451;48.638;10.624;2022-09-09T03:47:39;26.00;52.30
44723;DHT22;30451;48.638;10.624;2022-09-09T03:50:06;26.00;52.30
44723;DHT22;30451;48.638;10.624;2022-09-09T03:52:37;25.90;52.30
44723;DHT22;30451;48.638;10.624;2022-09-09T03:55:04;25.90;52.30
44723;DHT22;30451;48.638;10.624;2022-09-09T03:57:30;25.90;52.30
44723;DHT22;30451;48.638;10.624;2022-09-09T03:59:57;25.90;52.30
44723;DHT22;30451;48.638;10.624;2022-09-09T04:02:23;25.90;52.30
44723;DHT22;30451;48.638;10.624;2022-09-09T04:04:49;25.90;52.30
44723;DHT22;30451;48.638;10.624;2022-09-09T04:07:15;25.90;52.40
44723;DHT22;30451;48.638;10.624;2022-09-09T04:09:41;25.90;52.30
44723;DHT22;30451;48.638;10.624;2022-09-09T04:12:07;25.90;52.30
44723;DHT22;30451;48.638;10.624;2022-09-09T04:14:32;25.90;52.30
44723;DHT22;30451;48.638;10.624;2022-09-09T04:16:58;25.90;52.30
44723;DHT22;30451;48.638;10.624;2022-09-09T04:19:24;25.80;52.30
44723;DHT22;30451;48.638;10.624;2022-09-09T04:21:51;25.80;52.30
44723;DHT22;30451;48.638;10.624;2022-09-09T04:24:17;25.80;52.30
44723;DHT22;30451;48.638;10.624;2022-09-09T04:26:43;25.80;52.30
44723;DHT22;30451;48.638;10.624;2022-09-09T04:29:08;25.80;52.30
44723;DHT22;30451;48.638;10.624;2022-09-09T04:31:34;25.80;52.30
44723;DHT22;30451;48.638;10.624;2022-09-09T04:34:00;25.80;52.30
44723;DHT22;30451;48.638;10.624;2022-09-09T04:36:31;25.80;52.30
44723;DHT22;30451;48.638;10.624;2022-09-09T04:38:57;25.80;52.30
44723;DHT22;30451;48.638;10.624;2022-09-09T04:41:23;25.80;52.30
44723;DHT22;30451;48.638;10.624;2022-09-09T04:43:49;25.80;52.30
44723;DHT22;30451;48.638;10.624;2022-09-09T04:46:15;25.80;52.30
44723;DHT22;30451;48.638;10.624;2022-09-09T04:48:43;25.80;52.30
44723;DHT22;30451;48.638;10.624;2022-09-09T04:51:12;25.80;52.30
44723;DHT22;30451;48.638;10.624;2022-09-09T04:53:38;25.80;52.30
44723;DHT22;30451;48.638;10.624;2022-09-09T04:56:10;25.70;52.20
44723;DHT22;30451;48.638;10.624;2022-09-09T04:58:36;25.70;52.20
44723;DHT22;30451;48.638;10.624;2022-09-09T05:01:07;25.70;52.20
44723;DHT22;30451;48.638;10.624;2022-09-09T05:03:33;25.80;52.30
44723;DHT22;30451;48.638;10.624;2022-09-09T05:06:15;25.70;52.30
44723;DHT22;30451;48.638;10.624;2022-09-09T05:08:43;25.70;52.30
44723;DHT22;30451;48.638;10.624;2022-09-09T05:13:39;25.70;52.30
44723;DHT22;30451;48.638;10.624;2022-09-09T05:16:05;25.70;52.30
44723;DHT22;30451;48.638;10.624;2022-09-09T05:18:31;25.70;52.30
44723;DHT22;30451;48.638;10.624;2022-09-09T05:20:59;25.70;52.30
44723;DHT22;30451;48.638;10.624;2022-09-09T05:23:25;25.70;52.30
44723;DHT22;30451;48.638;10.624;2022-09-09T05:25:57;25.70;52.30
44723;DHT22;30451;48.638;10.624;2022-09-09T05:28:27;25.70;52.30
44723;DHT22;30451;48.638;10.624;2022-09-09T05:31:05;25.70;52.80
44723;DHT22;30451;48.638;10.624;2022-09-09T05:33:33;25.70;52.30
44723;DHT22;30451;48.638;10.624;2022-09-09T05:36:02;25.70;52.20
44723;DHT22;30451;48.638;10.624;2022-09-09T05:38:28;25.70;52.20
44723;DHT22;30451;48.638;10.624;2022-09-09T05:40:54;25.70;52.20
44723;DHT22;30451;48.638;10.624;2022-09-09T05:43:22;25.70;52.20
44723;DHT22;30451;48.638;10.624;2022-09-09T05:45:58;25.70;52.30
44723;DHT22;30451;48.638;10.624;2022-09-09T05:48:27;25.70;52.30
44723;DHT22;30451;48.638;10.624;2022-09-09T05:50:53;25.60;52.20
44723;DHT22;30451;48.638;10.624;2022-09-09T05:53:19;25.60;52.20
44723;DHT22;30451;48.638;10.624;2022-09-09T05:55:45;25.70;52.30
44723;DHT22;30451;48.638;10.624;2022-09-09T05:58:11;25.70;52.30
44723;DHT22;30451;48.638;10.624;2022-09-09T06:00:37;25.70;52.30
44723;DHT22;30451;48.638;10.624;2022-09-09T06:03:03;25.70;52.20
44723;DHT22;30451;48.638;10.624;2022-09-09T06:05:29;25.70;52.20
44723;DHT22;30451;48.638;10.624;2022-09-09T06:07:55;25.80;52.20
44723;DHT22;30451;48.638;10.624;2022-09-09T06:10:22;25.80;52.10
44723;DHT22;30451;48.638;10.624;2022-09-09T06:12:47;25.80;52.00
44723;DHT22;30451;48.638;10.624;2022-09-09T06:15:13;25.90;52.00
44723;DHT22;30451;48.638;10.624;2022-09-09T06:17:39;25.90;51.90
44723;DHT22;30451;48.638;10.624;2022-09-09T06:20:05;25.90;51.80
44723;DHT22;30451;48.638;10.624;2022-09-09T06:22:31;26.00;51.80
44723;DHT22;30451;48.638;10.624;2022-09-09T06:24:56;26.00;51.70
44723;DHT22;30451;48.638;10.624;2022-09-09T06:27:22;26.00;51.70
44723;DHT22;30451;48.638;10.624;2022-09-09T06:29:47;26.10;51.70
44723;DHT22;30451;48.638;10.624;2022-09-09T06:32:13;26.10;51.60
44723;DHT22;30451;48.638;10.624;2022-09-09T06:34:39;26.10;51.50
44723;DHT22;30451;48.638;10.624;2022-09-09T06:37:05;26.20;51.50
44723;DHT22;30451;48.638;10.624;2022-09-09T06:39:31;26.20;51.50
44723;DHT22;30451;48.638;10.624;2022-09-09T06:41:57;26.20;51.50
44723;DHT22;30451;48.638;10.624;2022-09-09T06:44:24;26.20;51.90
44723;DHT22;30451;48.638;10.624;2022-09-09T06:46:52;26.20;51.30
44723;DHT22;30451;48.638;10.624;2022-09-09T06:49:17;26.20;51.30
44723;DHT22;30451;48.638;10.624;2022-09-09T06:51:44;26.30;51.30
44723;DHT22;30451;48.638;10.624;2022-09-09T06:54:10;26.30;51.30
44723;DHT22;30451;48.638;10.624;2022-09-09T06:56:41;26.30;51.20
44723;DHT22;30451;48.638;10.624;2022-09-09T06:59:09;26.30;51.20
44723;DHT22;30451;48.638;10.624;2022-09-09T07:01:37;26.30;51.20
44723;DHT22;30451;48.638;10.624;2022-09-09T07:04:04;26.30;51.20
44723;DHT22;30451;48.638;10.624;2022-09-09T07:06:35;26.30;51.10
44723;DHT22;30451;48.638;10.624;2022-09-09T07:09:03;26.40;51.10
44723;DHT22;30451;48.638;10.624;2022-09-09T07:11:32;26.40;51.60
44723;DHT22;30451;48.638;10.624;2022-09-09T07:13:59;26.40;51.00
44723;DHT22;30451;48.638;10.624;2022-09-09T07:16:26;26.50;51.60
44723;DHT22;30451;48.638;10.624;2022-09-09T07:18:53;26.40;51.00
44723;DHT22;30451;48.638;10.624;2022-09-09T07:21:23;26.50;51.00
44723;DHT22;30451;48.638;10.624;2022-09-09T07:23:50;26.50;51.00
44723;DHT22;30451;48.638;10.624;2022-09-09T07:26:17;26.50;50.90
44723;DHT22;30451;48.638;10.624;2022-09-09T07:28:44;26.50;50.90
44723;DHT22;30451;48.638;10.624;2022-09-09T07:31:22;26.50;50.80
44723;DHT22;30451;48.638;10.624;2022-09-09T07:33:48;26.50;50.80
44723;DHT22;30451;48.638;10.624;2022-09-09T07:36:14;26.50;50.80
44723;DHT22;30451;48.638;10.624;2022-09-09T07:38:42;26.60;50.80
44723;DHT22;30451;48.638;10.624;2022-09-09T07:41:18;26.60;50.80
44723;DHT22;30451;48.638;10.624;2022-09-09T07:43:46;26.60;50.80
44723;DHT22;30451;48.638;10.624;2022-09-09T07:46:14;26.60;50.70
44723;DHT22;30451;48.638;10.624;2022-09-09T07:48:46;26.60;50.80
44723;DHT22;30451;48.638;10.624;2022-09-09T07:51:14;26.60;50.70
44723;DHT22;30451;48.638;10.624;2022-09-09T07:53:43;26.60;50.60
44723;DHT22;30451;48.638;10.624;2022-09-09T07:56:13;26.60;50.50
44723;DHT22;30451;48.638;10.624;2022-09-09T07:58:39;26.70;51.10
44723;DHT22;30451;48.638;10.624;2022-09-09T08:01:10;26.70;50.60
44723;DHT22;30451;48.638;10.624;2022-09-09T08:03:37;26.70;50.50
44723;DHT22;30451;48.638;10.624;2022-09-09T08:06:05;26.70;50.50
44723;DHT22;30451;48.638;10.624;2022-09-09T08:08:32;26.70;50.60
44723;DHT22;30451;48.638;10.624;2022-09-09T08:11:15;26.70;50.60
44723;DHT22;30451;48.638;10.624;2022-09-09T08:13:42;26.70;50.70
44723;DHT22;30451;48.638;10.624;2022-09-09T08:16:15;26.70;50.70
44723;DHT22;30451;48.638;10.624;2022-09-09T08:18:40;26.70;50.70
44723;DHT22;30451;48.638;10.624;2022-09-09T08:21:14;26.70;50.70
44723;DHT22;30451;48.638;10.624;2022-09-09T08:23:44;26.80;50.80
44723;DHT22;30451;48.638;10.624;2022-09-09T08:26:13;26.80;50.70
44723;DHT22;30451;48.638;10.624;2022-09-09T08:28:39;26.80;50.60
44723;DHT22;30451;48.638;10.624;2022-09-09T08:31:17;26.80;50.60
44723;DHT22;30451;48.638;10.624;2022-09-09T08:33:43;26.80;50.60
44723;DHT22;30451;48.638;10.624;2022-09-09T08:36:18;26.80;50.60
44723;DHT22;30451;48.638;10.624;2022-09-09T08:38:51;26.80;50.60
44723;DHT22;30451;48.638;10.624;2022-09-09T08:55:24;26.90;51.60
44723;DHT22;30451;48.638;10.624;2022-09-09T08:57:53;26.90;51.90
44723;DHT22;30451;48.638;10.624;2022-09-09T09:00:20;26.90;51.70
44723;DHT22;30451;48.638;10.624;2022-09-09T09:05:36;27.00;51.80
44723;DHT22;30451;48.638;10.624;2022-09-09T09:13:20;27.10;51.90
44723;DHT22;30451;48.638;10.624;2022-09-09T09:15:53;27.10;51.90
44723;DHT22;30451;48.638;10.624;2022-09-09T09:18:22;27.10;52.00
44723;DHT22;30451;48.638;10.624;2022-09-09T09:21:03;27.10;52.00
44723;DHT22;30451;48.638;10.624;2022-09-09T09:23:49;27.20;52.50
44723;DHT22;30451;48.638;10.624;2022-09-09T09:26:18;27.20;52.00
44723;DHT22;30451;48.638;10.624;2022-09-09T09:28:44;27.20;52.00
44723;DHT22;30451;48.638;10.624;2022-09-09T09:31:11;27.20;51.90
44723;DHT22;30451;48.638;10.624;2022-09-09T09:33:48;27.20;51.90
44723;DHT22;30451;48.638;10.624;2022-09-09T09:36:16;27.30;51.80
44723;DHT22;30451;48.638;10.624;2022-09-09T09:38:56;27.30;51.90
44723;DHT22;30451;48.638;10.624;2022-09-09T09:41:36;27.30;51.80
44723;DHT22;30451;48.638;10.624;2022-09-09T09:44:05;27.30;51.80
44723;DHT22;30451;48.638;10.624;2022-09-09T09:46:31;27.40;51.70
44723;DHT22;30451;48.638;10.624;2022-09-09T09:49:04;27.40;51.70
44723;DHT22;30451;48.638;10.624;2022-09-09T09:51:31;27.40;51.90
44723;DHT22;30451;48.638;10.624;2022-09-09T09:54:27;27.40;51.90
44723;DHT22;30451;48.638;10.624;2022-09-09T09:56:54;27.40;51.80
44723;DHT22;30451;48.638;10.624;2022-09-09T09:59:32;27.40;52.20
44723;DHT22;30451;48.638;10.624;2022-09-09T10:02:20;27.50;52.00
44723;DHT22;30451;48.638;10.624;2022-09-09T10:04:46;27.50;51.90
44723;DHT22;30451;48.638;10.624;2022-09-09T10:07:20;27.50;51.70
44723;DHT22;30451;48.638;10.624;2022-09-09T10:09:54;27.50;51.70
44723;DHT22;30451;48.638;10.624;2022-09-09T10:15:16;27.50;51.50
44723;DHT22;30451;48.638;10.624;2022-09-09T10:29:12;27.60;51.10
44723;DHT22;30451;48.638;10.624;2022-09-09T10:40:32;27.60;50.70
44723;DHT22;30451;48.638;10.624;2022-09-09T10:43:17;27.70;50.90
44723;DHT22;30451;48.638;10.624;2022-09-09T10:48:42;27.70;51.10
44723;DHT22;30451;48.638;10.624;2022-09-09T10:51:23;27.70;51.20
44723;DHT22;30451;48.638;10.624;2022-09-09T10:53:53;27.80;51.30
44723;DHT22;30451;48.638;10.624;2022-09-09T10:56:23;27.70;51.20
44723;DHT22;30451;48.638;10.624;2022-09-09T10:59:20;27.80;51.20
44723;DHT22;30451;48.638;10.624;2022-09-09T11:01:53;27.80;51.30
44723;DHT22;30451;48.638;10.624;2022-09-09T11:04:25;27.80;51.30
44723;DHT22;30451;48.638;10.624;2022-09-09T11:06:55;27.80;51.30
44723;DHT22;30451;48.638;10.624;2022-09-09T11:09:30;27.80;51.40
44723;DHT22;30451;48.638;10.624;2022-09-09T11:11:59;27.80;51.50
44723;DHT22;30451;48.638;10.624;2022-09-09T11:14:40;27.90;51.70
44723;DHT22;30451;48.638;10.624;2022-09-09T11:17:18;27.90;51.70
44723;DHT22;30451;48.638;10.624;2022-09-09T11:19:44;27.90;51.70
44723;DHT22;30451;48.638;10.624;2022-09-09T11:25:45;27.90;51.70
44723;DHT22;30451;48.638;10.624;2022-09-09T11:36:51;28.10;51.60
44723;DHT22;30451;48.638;10.624;2022-09-09T11:42:20;28.00;51.30
44723;DHT22;30451;48.638;10.624;2022-09-09T11:44:46;28.10;51.40
44723;DHT22;30451;48.638;10.624;2022-09-09T11:47:24;28.10;51.30
44723;DHT22;30451;48.638;10.624;2022-09-09T11:49:51;28.10;51.20
44723;DHT22;30451;48.638;10.624;2022-09-09T11:52:47;28.10;51.10
44723;DHT22;30451;48.638;10.624;2022-09-09T11:55:28;28.10;51.00
44723;DHT22;30451;48.638;10.624;2022-09-09T11:58:00;28.10;51.00
44723;DHT22;30451;48.638;10.624;2022-09-09T12:00:40;28.10;50.70
44723;DHT22;30451;48.638;10.624;2022-09-09T12:03:42;28.10;50.40
44723;DHT22;30451;48.638;10.624;2022-09-09T12:08:43;28.10;50.00
44723;DHT22;30451;48.638;10.624;2022-09-09T12:11:08;28.10;50.00
44723;DHT22;30451;48.638;10.624;2022-09-09T12:13:34;28.10;50.00
44723;DHT22;30451;48.638;10.624;2022-09-09T12:16:01;28.10;50.00
44723;DHT22;30451;48.638;10.624;2022-09-09T12:18:38;28.10;50.00
44723;DHT22;30451;48.638;10.624;2022-09-09T12:23:55;28.00;50.00
44723;DHT22;30451;48.638;10.624;2022-09-09T12:26:32;28.00;50.00
44723;DHT22;30451;48.638;10.624;2022-09-09T12:32:08;27.90;50.00
44723;DHT22;30451;48.638;10.624;2022-09-09T12:34:42;27.90;50.00
44723;DHT22;30451;48.638;10.624;2022-09-09T12:39:57;27.80;50.00
44723;DHT22;30451;48.638;10.624;2022-09-09T12:42:25;27.80;50.00
44723;DHT22;30451;48.638;10.624;2022-09-09T12:47:20;27.70;50.00
44723;DHT22;30451;48.638;10.624;2022-09-09T12:49:47;27.70;50.10
44723;DHT22;30451;48.638;10.624;2022-09-09T12:52:23;27.70;50.10
44723;DHT22;30451;48.638;10.624;2022-09-09T12:54:50;27.70;50.20
44723;DHT22;30451;48.638;10.624;2022-09-09T12:57:19;27.70;50.20
44723;DHT22;30451;48.638;10.624;2022-09-09T12:59:45;27.60;50.10
44723;DHT22;30451;48.638;10.624;2022-09-09T13:02:44;27.70;50.20
44723;DHT22;30451;48.638;10.624;2022-09-09T13:05:38;27.60;50.20
44723;DHT22;30451;48.638;10.624;2022-09-09T13:08:06;27.60;50.20
44723;DHT22;30451;48.638;10.624;2022-09-09T13:10:35;27.60;50.30
44723;DHT22;30451;48.638;10.624;2022-09-09T13:13:05;27.60;50.30
44723;DHT22;30451;48.638;10.624;2022-09-09T13:15:37;27.50;50.30
44723;DHT22;30451;48.638;10.624;2022-09-09T13:18:06;27.50;50.20
44723;DHT22;30451;48.638;10.624;2022-09-09T13:20:32;27.50;50.20
44723;DHT22;30451;48.638;10.624;2022-09-09T13:22:57;27.50;50.20
44723;DHT22;30451;48.638;10.624;2022-09-09T13:25:29;27.50;50.10
44723;DHT22;30451;48.638;10.624;2022-09-09T13:28:18;27.40;50.10
44723;DHT22;30451;48.638;10.624;2022-09-09T13:30:59;27.40;50.10
44723;DHT22;30451;48.638;10.624;2022-09-09T13:33:38;27.40;50.20
44723;DHT22;30451;48.638;10.624;2022-09-09T13:36:09;27.40;50.20
44723;DHT22;30451;48.638;10.624;2022-09-09T13:38:58;27.40;50.20
44723;DHT22;30451;48.638;10.624;2022-09-09T13:41:34;27.30;50.20
44723;DHT22;30451;48.638;10.624;2022-09-09T13:44:02;27.30;50.20
44723;DHT22;30451;48.638;10.624;2022-09-09T13:46:38;27.30;50.30
44723;DHT22;30451;48.638;10.624;2022-09-09T13:51:40;27.30;50.40
44723;DHT22;30451;48.638;10.624;2022-09-09T13:54:09;27.20;50.40
44723;DHT22;30451;48.638;10.624;2022-09-09T13:56:36;27.20;50.40
44723;DHT22;30451;48.638;10.624;2022-09-09T13:59:04;27.20;50.40
44723;DHT22;30451;48.638;10.624;2022-09-09T14:01:30;27.20;50.40
44723;DHT22;30451;48.638;10.624;2022-09-09T14:03:56;27.20;50.50
44723;DHT22;30451;48.638;10.624;2022-09-09T14:06:22;27.10;50.40
44723;DHT22;30451;48.638;10.624;2022-09-09T14:08:51;27.10;50.40
44723;DHT22;30451;48.638;10.624;2022-09-09T14:11:17;27.10;50.40
44723;DHT22;30451;48.638;10.624;2022-09-09T14:13:43;27.10;50.40
44723;DHT22;30451;48.638;10.624;2022-09-09T14:16:09;27.10;50.50
44723;DHT22;30451;48.638;10.624;2022-09-09T14:18:35;27.00;50.50
44723;DHT22;30451;48.638;10.624;2022-09-09T14:21:01;27.00;50.50
44723;DHT22;30451;48.638;10.624;2022-09-09T14:23:28;27.00;50.50
44723;DHT22;30451;48.638;10.624;2022-09-09T14:25:54;27.00;50.50
44723;DHT22;30451;48.638;10.624;2022-09-09T14:28:20;27.00;50.60
44723;DHT22;30451;48.638;10.624;2022-09-09T14:30:46;27.00;50.60
44723;DHT22;30451;48.638;10.624;2022-09-09T14:33:14;26.90;50.60
44723;DHT22;30451;48.638;10.624;2022-09-09T14:35:40;26.90;50.70
44723;DHT22;30451;48.638;10.624;2022-09-09T14:38:07;26.90;50.70
44723;DHT22;30451;48.638;10.624;2022-09-09T14:40:34;26.90;50.70
44723;DHT22;30451;48.638;10.624;2022-09-09T14:43:00;26.90;50.70
44723;DHT22;30451;48.638;10.624;2022-09-09T14:45:26;26.90;51.30
44723;DHT22;30451;48.638;10.624;2022-09-09T14:47:52;26.80;50.70
44723;DHT22;30451;48.638;10.624;2022-09-09T14:50:18;26.80;50.70
44723;DHT22;30451;48.638;10.624;2022-09-09T14:52:44;26.80;50.70
44723;DHT22;30451;48.638;10.624;2022-09-09T14:55:10;26.80;50.80
44723;DHT22;30451;48.638;10.624;2022-09-09T14:57:36;26.80;50.80
44723;DHT22;30451;48.638;10.624;2022-09-09T15:00:06;26.70;50.80
44723;DHT22;30451;48.638;10.624;2022-09-09T15:02:32;26.80;50.90
44723;DHT22;30451;48.638;10.624;2022-09-09T15:04:58;26.70;51.40
44723;DHT22;30451;48.638;10.624;2022-09-09T15:07:24;26.70;51.00
44723;DHT22;30451;48.638;10.624;2022-09-09T15:09:50;26.70;51.00
44723;DHT22;30451;48.638;10.624;2022-09-09T15:12:18;26.70;51.00
44723;DHT22;30451;48.638;10.624;2022-09-09T15:14:46;26.70;51.00
44723;DHT22;30451;48.638;10.624;2022-09-09T15:17:12;26.70;51.10
44723;DHT22;30451;48.638;10.624;2022-09-09T15:19:38;26.60;51.00
44723;DHT22;30451;48.638;10.624;2022-09-09T15:22:05;26.60;51.10
44723;DHT22;30451;48.638;10.624;2022-09-09T15:24:32;26.60;51.10
44723;DHT22;30451;48.638;10.624;2022-09-09T15:26:58;26.60;51.10
44723;DHT22;30451;48.638;10.624;2022-09-09T15:29:24;26.60;51.10
44723;DHT22;30451;48.638;10.624;2022-09-09T15:31:50;26.60;51.20
44723;DHT22;30451;48.638;10.624;2022-09-09T15:34:16;26.60;51.20
44723;DHT22;30451;48.638;10.624;2022-09-09T15:36:43;26.60;51.20
44723;DHT22;30451;48.638;10.624;2022-09-09T15:39:11;26.60;51.20
44723;DHT22;30451;48.638;10.624;2022-09-09T15:41:38;26.50;51.20
44723;DHT22;30451;48.638;10.624;2022-09-09T15:44:04;26.50;51.20
44723;DHT22;30451;48.638;10.624;2022-09-09T15:46:32;26.50;51.20
44723;DHT22;30451;48.638;10.624;2022-09-09T15:49:22;26.50;51.20
44723;DHT22;30451;48.638;10.624;2022-09-09T15:51:55;26.50;51.20
44723;DHT22;30451;48.638;10.624;2022-09-09T15:54:22;26.50;51.30
44723;DHT22;30451;48.638;10.624;2022-09-09T15:56:58;26.50;51.30
44723;DHT22;30451;48.638;10.624;2022-09-09T15:59:26;26.50;51.30
44723;DHT22;30451;48.638;10.624;2022-09-09T16:01:53;26.50;51.30
44723;DHT22;30451;48.638;10.624;2022-09-09T16:04:21;26.50;51.30
44723;DHT22;30451;48.638;10.624;2022-09-09T16:06:54;26.40;51.10
44723;DHT22;30451;48.638;10.624;2022-09-09T16:09:21;26.40;50.40
44723;DHT22;30451;48.638;10.624;2022-09-09T16:11:47;26.40;49.60
44723;DHT22;30451;48.638;10.624;2022-09-09T16:14:14;26.40;48.80
44723;DHT22;30451;48.638;10.624;2022-09-09T16:16:41;26.40;48.20
44723;DHT22;30451;48.638;10.624;2022-09-09T16:19:10;26.40;47.80
44723;DHT22;30451;48.638;10.624;2022-09-09T16:21:38;26.30;47.80
44723;DHT22;30451;48.638;10.624;2022-09-09T16:24:06;26.30;47.80
44723;DHT22;30451;48.638;10.624;2022-09-09T16:26:34;26.30;47.30
44723;DHT22;30451;48.638;10.624;2022-09-09T16:29:01;26.30;47.30
44723;DHT22;30451;48.638;10.624;2022-09-09T16:31:29;26.30;47.10
44723;DHT22;30451;48.638;10.624;2022-09-09T16:33:55;26.30;46.80
44723;DHT22;30451;48.638;10.624;2022-09-09T16:36:26;26.30;47.00
44723;DHT22;30451;48.638;10.624;2022-09-09T16:38:57;26.20;46.70
44723;DHT22;30451;48.638;10.624;2022-09-09T16:41:25;26.20;46.60
44723;DHT22;30451;48.638;10.624;2022-09-09T16:43:58;26.20;46.50
44723;DHT22;30451;48.638;10.624;2022-09-09T16:46:25;26.20;46.30
44723;DHT22;30451;48.638;10.624;2022-09-09T16:48:51;26.20;46.20
44723;DHT22;30451;48.638;10.624;2022-09-09T16:51:26;26.20;46.40
44723;DHT22;30451;48.638;10.624;2022-09-09T16:53:53;26.20;46.50
44723;DHT22;30451;48.638;10.624;2022-09-09T16:56:21;26.20;46.40
44723;DHT22;30451;48.638;10.624;2022-09-09T16:58:51;26.20;46.30
44723;DHT22;30451;48.638;10.624;2022-09-09T17:01:17;26.20;46.10
44723;DHT22;30451;48.638;10.624;2022-09-09T17:03:43;26.20;46.00
44723;DHT22;30451;48.638;10.624;2022-09-09T17:06:13;26.10;45.60
44723;DHT22;30451;48.638;10.624;2022-09-09T17:08:40;26.10;45.70
44723;DHT22;30451;48.638;10.624;2022-09-09T17:11:16;26.10;45.50
44723;DHT22;30451;48.638;10.624;2022-09-09T17:13:47;26.10;45.30
44723;DHT22;30451;48.638;10.624;2022-09-09T17:16:16;26.10;45.30
44723;DHT22;30451;48.638;10.624;2022-09-09T17:18:42;26.10;45.50
44723;DHT22;30451;48.638;10.624;2022-09-09T17:21:10;26.10;45.50
44723;DHT22;30451;48.638;10.624;2022-09-09T17:23:37;26.10;45.40
44723;DHT22;30451;48.638;10.624;2022-09-09T17:26:05;26.10;45.50
44723;DHT22;30451;48.638;10.624;2022-09-09T17:28:36;26.00;45.40
44723;DHT22;30451;48.638;10.624;2022-09-09T17:31:04;26.00;45.30
44723;DHT22;30451;48.638;10.624;2022-09-09T17:33:33;26.00;45.40